createdAt,value
2019-05-18T00:01:19.680Z,1.30
2019-05-18T00:03:46.881Z,0.78
2019-05-18T00:06:14.128Z,0.78
2019-05-18T00:08:41.332Z,0.62
2019-05-18T00:11:08.620Z,0.60
2019-05-18T00:13:36.240Z,0.50
2019-05-18T00:16:03.438Z,0.65
2019-05-18T00:18:31.081Z,0.60
2019-05-18T00:20:58.403Z,0.42
2019-05-18T00:23:25.601Z,0.50
2019-05-18T00:25:52.796Z,1.00
2019-05-18T00:28:20.055Z,0.90
2019-05-18T00:30:47.323Z,1.05
2019-05-18T00:33:14.916Z,1.40
2019-05-18T00:35:42.180Z,1.45
2019-05-18T00:38:09.804Z,1.05
2019-05-18T00:40:36.992Z,1.45
2019-05-18T00:43:04.220Z,0.70
2019-05-18T00:45:31.420Z,0.82
2019-05-18T00:47:58.995Z,0.65
2019-05-18T00:50:26.556Z,0.50
2019-05-18T00:52:53.853Z,0.70
2019-05-18T00:55:21.050Z,0.90
2019-05-18T00:57:48.353Z,0.60
2019-05-18T01:00:15.550Z,0.85
2019-05-18T01:02:42.776Z,0.72
2019-05-18T01:05:10.091Z,0.80
2019-05-18T01:07:37.360Z,0.50
2019-05-18T01:10:05.502Z,0.50
2019-05-18T01:12:32.700Z,0.60
2019-05-18T01:14:59.920Z,1.10
2019-05-18T01:17:27.125Z,0.72
2019-05-18T01:19:54.377Z,0.90
2019-05-18T01:22:21.623Z,0.50
2019-05-18T01:24:49.020Z,0.70
2019-05-18T01:27:16.224Z,0.90
2019-05-18T01:29:43.448Z,0.75
2019-05-18T01:32:10.645Z,0.53
2019-05-18T01:34:37.864Z,0.45
2019-05-18T01:37:05.136Z,0.37
2019-05-18T01:39:32.360Z,0.50
2019-05-18T01:41:59.556Z,0.60
2019-05-18T01:44:26.783Z,0.40
2019-05-18T01:46:53.985Z,0.50
2019-05-18T01:49:21.232Z,0.80
2019-05-18T01:51:48.445Z,1.37
2019-05-18T01:54:15.725Z,2.15
2019-05-18T01:56:43.037Z,2.00
2019-05-18T01:59:10.239Z,1.50
2019-05-18T02:01:37.440Z,0.98
2019-05-18T02:04:04.768Z,0.90
2019-05-18T02:06:31.966Z,0.70
2019-05-18T02:08:59.169Z,0.80
2019-05-18T02:11:26.498Z,0.70
2019-05-18T02:13:54.025Z,0.90
2019-05-18T02:16:21.299Z,1.05
2019-05-18T02:18:48.524Z,1.30
2019-05-18T02:21:16.085Z,1.42
2019-05-18T02:23:43.350Z,1.30
2019-05-18T02:26:10.654Z,0.95
2019-05-18T02:28:37.860Z,0.98
2019-05-18T02:31:05.085Z,0.60
2019-05-18T02:33:32.284Z,0.62
2019-05-18T02:35:59.888Z,0.70
2019-05-18T02:38:27.087Z,0.57
2019-05-18T02:40:54.386Z,0.47
2019-05-18T02:43:21.653Z,0.37
2019-05-18T02:45:48.875Z,0.42
2019-05-18T02:48:16.089Z,0.70
2019-05-18T02:50:43.826Z,0.40
2019-05-18T02:53:11.096Z,0.57
2019-05-18T02:55:38.618Z,0.37
2019-05-18T02:58:06.180Z,0.50
2019-05-18T03:00:33.732Z,0.50
2019-05-18T03:03:00.930Z,0.80
2019-05-18T03:05:28.154Z,0.70
2019-05-18T03:07:55.342Z,0.68
2019-05-18T03:10:22.568Z,0.65
2019-05-18T03:12:49.842Z,0.37
2019-05-18T03:15:17.067Z,0.30
2019-05-18T03:17:44.346Z,0.60
2019-05-18T03:20:11.704Z,0.65
2019-05-18T03:22:38.902Z,0.42
2019-05-18T03:25:06.297Z,0.50
2019-05-18T03:27:33.557Z,0.50
2019-05-18T03:30:00.775Z,0.50
2019-05-18T03:32:28.058Z,0.40
2019-05-18T03:34:55.326Z,0.42
2019-05-18T03:37:22.913Z,0.47
2019-05-18T03:39:50.214Z,0.45
2019-05-18T03:42:17.831Z,0.40
2019-05-18T03:44:45.102Z,0.50
2019-05-18T03:47:12.396Z,0.47
2019-05-18T03:49:39.595Z,0.50
2019-05-18T03:52:06.892Z,0.53
2019-05-18T03:54:34.401Z,0.70
2019-05-18T03:57:01.703Z,0.50
2019-05-18T03:59:28.972Z,0.80
2019-05-18T04:01:56.230Z,0.98
2019-05-18T04:04:23.499Z,0.65
2019-05-18T04:06:50.793Z,0.37
2019-05-18T04:09:17.988Z,0.33
2019-05-18T04:11:45.310Z,0.40
2019-05-18T04:14:12.562Z,0.40
2019-05-18T04:16:39.867Z,0.40
2019-05-18T04:19:07.149Z,0.40
2019-05-18T04:21:34.656Z,0.78
2019-05-18T04:24:01.953Z,2.60
2019-05-18T04:26:29.181Z,2.70
2019-05-18T04:28:56.368Z,2.52
2019-05-18T04:31:23.599Z,2.67
2019-05-18T04:33:50.869Z,2.52
2019-05-18T04:36:18.169Z,1.75
2019-05-18T04:38:45.399Z,3.27
2019-05-18T04:41:12.679Z,2.05
2019-05-18T04:43:39.983Z,1.52
2019-05-18T04:46:07.256Z,1.50
2019-05-18T04:48:34.483Z,1.25
2019-05-18T04:51:01.758Z,0.82
2019-05-18T04:53:29.060Z,0.60
2019-05-18T04:55:56.265Z,0.50
2019-05-18T04:58:23.508Z,0.50
2019-05-18T05:00:50.776Z,1.00
2019-05-18T05:03:18.137Z,0.80
2019-05-18T05:05:45.415Z,0.42
2019-05-18T05:08:12.708Z,0.53
2019-05-18T05:10:41.994Z,2.45
2019-05-18T05:13:09.277Z,1.90
2019-05-18T05:15:36.481Z,1.45
2019-05-18T05:18:03.702Z,1.00
2019-05-18T05:20:30.905Z,0.45
2019-05-18T05:22:58.203Z,0.50
2019-05-18T05:25:25.404Z,0.50
2019-05-18T05:27:52.638Z,0.62
2019-05-18T05:30:19.832Z,0.40
2019-05-18T05:32:47.051Z,0.40
2019-05-18T05:35:14.249Z,0.40
2019-05-18T05:37:41.549Z,0.70
2019-05-18T05:40:08.751Z,1.00
2019-05-18T05:42:36.055Z,1.67
2019-05-18T05:45:04.308Z,1.90
2019-05-18T05:47:31.580Z,1.60
2019-05-18T05:49:58.880Z,1.20
2019-05-18T05:52:26.456Z,1.22
2019-05-18T05:54:53.757Z,1.50
2019-05-18T05:57:21.018Z,1.32
2019-05-18T05:59:48.242Z,1.15
2019-05-18T06:02:15.517Z,2.25
2019-05-18T06:04:42.786Z,1.98
2019-05-18T06:07:10.016Z,1.30
2019-05-18T06:09:37.240Z,1.30
2019-05-18T06:12:04.440Z,1.77
2019-05-18T06:14:32.020Z,1.27
2019-05-18T06:16:59.221Z,2.00
2019-05-18T06:19:26.448Z,1.20
2019-05-18T06:21:53.648Z,0.82
2019-05-18T06:24:21.225Z,1.20
2019-05-18T06:26:48.419Z,1.10
2019-05-18T06:29:15.617Z,0.50
2019-05-18T06:31:42.868Z,1.50
2019-05-18T06:34:10.136Z,1.72
2019-05-18T06:36:37.329Z,1.30
2019-05-18T06:39:06.168Z,1.17
2019-05-18T06:41:33.364Z,1.60
2019-05-18T06:44:00.560Z,3.00
2019-05-18T06:46:27.872Z,3.22
2019-05-18T06:48:55.102Z,4.20
2019-05-18T06:51:22.300Z,4.65
2019-05-18T06:53:49.532Z,4.40
2019-05-18T06:56:16.735Z,3.60
2019-05-18T06:58:43.932Z,4.08
2019-05-18T07:01:11.175Z,3.75
2019-05-18T07:03:38.376Z,2.90
2019-05-18T07:06:05.573Z,3.10
2019-05-18T07:08:32.825Z,3.70
2019-05-18T07:11:00.080Z,3.08
2019-05-18T07:13:27.316Z,2.40
2019-05-18T07:15:54.592Z,1.75
2019-05-18T07:18:22.201Z,1.85
2019-05-18T07:20:49.473Z,1.90
2019-05-18T07:23:16.882Z,1.80
2019-05-18T07:25:44.661Z,2.72
2019-05-18T07:28:11.864Z,2.25
2019-05-18T07:30:39.185Z,1.72
2019-05-18T07:33:06.388Z,2.15
2019-05-18T07:35:33.702Z,3.20
2019-05-18T07:38:01.018Z,2.35
2019-05-18T07:40:28.293Z,2.70
2019-05-18T07:42:55.489Z,2.60
2019-05-18T07:45:22.800Z,1.80
2019-05-18T07:47:50.000Z,2.87
2019-05-18T07:50:17.197Z,4.05
2019-05-18T07:52:44.427Z,2.45
2019-05-18T07:55:11.626Z,1.67
2019-05-18T07:57:39.135Z,2.10
2019-05-18T08:00:06.453Z,2.40
2019-05-18T08:02:33.752Z,3.58
2019-05-18T08:05:01.791Z,3.30
2019-05-18T08:07:29.096Z,3.22
2019-05-18T08:09:56.292Z,2.50
2019-05-18T08:12:23.488Z,1.80
2019-05-18T08:14:50.800Z,1.85
2019-05-18T08:17:17.997Z,1.90
2019-05-18T08:19:45.257Z,2.35
2019-05-18T08:22:12.553Z,1.60
2019-05-18T08:24:40.265Z,2.22
2019-05-18T08:27:07.531Z,2.55
2019-05-18T08:29:34.760Z,2.10
2019-05-18T08:32:01.959Z,1.80
2019-05-18T08:34:29.167Z,1.50
2019-05-18T08:36:56.785Z,1.40
2019-05-18T08:39:24.346Z,1.20
2019-05-18T08:41:51.621Z,0.70
2019-05-18T08:44:18.934Z,1.42
2019-05-18T08:46:46.405Z,1.10
2019-05-18T08:49:13.605Z,1.07
2019-05-18T08:51:40.912Z,1.10
2019-05-18T08:54:08.114Z,0.93
2019-05-18T08:56:35.312Z,1.72
2019-05-18T08:59:02.568Z,1.10
2019-05-18T09:01:29.775Z,1.22
2019-05-18T09:03:57.073Z,1.72
2019-05-18T09:06:24.476Z,1.70
2019-05-18T09:08:52.075Z,2.35
2019-05-18T09:11:19.348Z,1.70
2019-05-18T09:13:46.583Z,1.90
2019-05-18T09:16:13.858Z,2.25
2019-05-18T09:18:41.213Z,2.52
2019-05-18T09:21:08.951Z,2.10
2019-05-18T09:23:36.219Z,2.00
2019-05-18T09:26:03.866Z,2.00
2019-05-18T09:28:31.185Z,2.00
2019-05-18T09:30:58.444Z,1.85
2019-05-18T09:33:25.645Z,1.50
2019-05-18T09:35:52.875Z,1.32
2019-05-18T09:38:20.530Z,1.60
2019-05-18T09:40:47.801Z,1.60
2019-05-18T09:43:15.334Z,1.75
2019-05-18T09:45:42.524Z,1.45
2019-05-18T09:48:09.720Z,1.05
2019-05-18T09:50:36.953Z,1.10
2019-05-18T09:53:04.505Z,1.25
2019-05-18T09:55:32.085Z,1.20
2019-05-18T09:57:59.424Z,1.30
2019-05-18T10:00:26.692Z,2.65
2019-05-18T10:02:53.888Z,2.30
2019-05-18T10:05:21.178Z,1.85
2019-05-18T10:07:48.440Z,1.40
2019-05-18T10:10:15.645Z,1.12
2019-05-18T10:12:42.889Z,1.10
2019-05-18T10:15:10.159Z,0.80
2019-05-18T10:17:37.428Z,1.10
2019-05-18T10:20:07.675Z,0.85
2019-05-18T10:22:35.253Z,1.12
2019-05-18T10:25:02.727Z,2.60
2019-05-18T10:27:29.998Z,2.37
2019-05-18T10:29:57.297Z,2.08
2019-05-18T10:32:24.496Z,2.12
2019-05-18T10:34:51.792Z,2.90
2019-05-18T10:37:18.988Z,2.15
2019-05-18T10:39:46.218Z,1.80
2019-05-18T10:42:13.517Z,1.70
2019-05-18T10:44:40.797Z,1.72
2019-05-18T10:47:08.002Z,2.58
2019-05-18T10:49:35.373Z,2.20
2019-05-18T10:52:02.640Z,2.02
2019-05-18T10:54:29.863Z,1.60
2019-05-18T10:56:57.059Z,2.12
2019-05-18T10:59:24.356Z,2.67
2019-05-18T11:01:51.705Z,2.72
2019-05-18T11:04:19.000Z,2.67
2019-05-18T11:06:46.225Z,1.72
2019-05-18T11:09:13.520Z,1.60
2019-05-18T11:11:40.793Z,2.90
2019-05-18T11:14:08.025Z,2.67
2019-05-18T11:16:35.328Z,1.90
2019-05-18T11:19:02.560Z,1.70
2019-05-18T11:21:29.828Z,2.22
2019-05-18T11:23:57.057Z,3.08
2019-05-18T11:26:24.252Z,3.55
2019-05-18T11:28:51.452Z,3.42
2019-05-18T11:31:18.681Z,2.80
2019-05-18T11:33:45.881Z,3.22
2019-05-18T11:36:13.182Z,3.92
2019-05-18T11:38:40.398Z,3.00
2019-05-18T11:41:07.694Z,3.20
2019-05-18T11:43:34.892Z,5.30
2019-05-18T11:46:02.131Z,3.90
2019-05-18T11:48:29.756Z,2.75
2019-05-18T11:50:56.984Z,3.55
2019-05-18T11:53:24.205Z,2.67
2019-05-18T11:55:51.434Z,1.90
2019-05-18T11:58:18.984Z,1.90
2019-05-18T12:00:46.622Z,1.90
2019-05-18T12:03:14.290Z,1.50
2019-05-18T12:05:41.585Z,2.33
2019-05-18T12:08:08.857Z,3.42
2019-05-18T12:10:36.087Z,3.10
2019-05-18T12:13:03.374Z,2.75
2019-05-18T12:15:30.664Z,2.60
2019-05-18T12:17:57.865Z,2.10
2019-05-18T12:20:25.169Z,15.00
2019-05-18T12:22:52.488Z,8.83
2019-05-18T12:25:19.880Z,7.47
2019-05-18T12:27:47.136Z,5.60
2019-05-18T12:30:14.417Z,3.17
2019-05-18T12:32:41.640Z,3.10
2019-05-18T12:35:08.924Z,1.90
2019-05-18T12:37:36.137Z,2.33
2019-05-18T12:40:04.293Z,1.80
2019-05-18T12:42:31.521Z,1.12
2019-05-18T12:44:58.717Z,1.22
2019-05-18T12:47:25.940Z,1.07
2019-05-18T12:49:53.213Z,1.20
2019-05-18T12:52:20.448Z,1.22
2019-05-18T12:54:47.716Z,1.20
2019-05-18T12:57:15.241Z,0.75
2019-05-18T12:59:42.436Z,1.32
2019-05-18T13:02:09.664Z,1.30
2019-05-18T13:04:36.936Z,1.40
2019-05-18T13:07:04.174Z,0.90
2019-05-18T13:09:31.444Z,2.20
2019-05-18T13:11:58.953Z,2.55
2019-05-18T13:14:26.160Z,2.47
2019-05-18T13:16:53.494Z,2.30
2019-05-18T13:19:20.760Z,2.20
2019-05-18T13:21:48.080Z,1.67
2019-05-18T13:24:15.636Z,1.30
2019-05-18T13:26:42.925Z,1.20
2019-05-18T13:29:10.196Z,1.10
2019-05-18T13:31:37.778Z,1.00
2019-05-18T13:34:04.975Z,2.27
2019-05-18T13:36:32.253Z,2.00
2019-05-18T13:38:59.517Z,1.87
2019-05-18T13:41:26.825Z,1.75
2019-05-18T13:43:54.093Z,1.62
2019-05-18T13:46:21.363Z,1.77
2019-05-18T13:48:48.660Z,2.08
2019-05-18T13:51:15.857Z,1.67
2019-05-18T13:53:43.088Z,1.52
2019-05-18T13:56:10.356Z,1.10
2019-05-18T13:58:37.657Z,1.30
2019-05-18T14:01:04.854Z,1.10
2019-05-18T14:03:32.079Z,1.05
2019-05-18T14:05:59.347Z,1.20
2019-05-18T14:08:26.577Z,0.90
2019-05-18T14:10:53.845Z,0.90
2019-05-18T14:13:21.146Z,0.70
2019-05-18T14:15:48.421Z,0.82
2019-05-18T14:18:15.714Z,0.70
2019-05-18T14:20:42.913Z,0.60
2019-05-18T14:23:10.138Z,0.50
2019-05-18T14:25:37.411Z,0.60
2019-05-18T14:28:04.633Z,0.45
2019-05-18T14:30:31.828Z,0.60
2019-05-18T14:32:59.074Z,0.70
2019-05-18T14:35:26.327Z,0.70
2019-05-18T14:37:53.553Z,0.53
2019-05-18T14:40:20.741Z,0.50
2019-05-18T14:42:48.016Z,0.40
2019-05-18T14:45:15.516Z,0.82
2019-05-18T14:47:42.749Z,0.70
2019-05-18T14:50:10.037Z,0.80
2019-05-18T14:52:37.557Z,0.57
2019-05-18T14:55:07.784Z,0.50
2019-05-18T14:57:35.069Z,0.78
2019-05-18T15:00:02.675Z,0.98
2019-05-18T15:02:30.037Z,1.02
2019-05-18T15:04:57.332Z,1.50
2019-05-18T15:07:24.534Z,1.02
2019-05-18T15:09:51.760Z,0.80
2019-05-18T15:12:18.958Z,1.22
2019-05-18T15:14:46.184Z,1.00
2019-05-18T15:17:13.385Z,0.95
2019-05-18T15:19:40.610Z,1.20
2019-05-18T15:22:07.804Z,0.90
2019-05-18T15:24:35.032Z,1.12
2019-05-18T15:27:02.574Z,1.57
2019-05-18T15:29:29.796Z,1.27
2019-05-18T15:31:56.992Z,1.05
2019-05-18T15:34:24.308Z,0.60
2019-05-18T15:36:51.576Z,0.88
2019-05-18T15:39:18.801Z,0.60
2019-05-18T15:41:46.072Z,0.70
2019-05-18T15:44:13.317Z,0.70
2019-05-18T15:46:40.599Z,1.30
2019-05-18T15:49:07.957Z,1.70
2019-05-18T15:51:35.256Z,1.37
2019-05-18T15:54:02.586Z,1.70
2019-05-18T15:56:29.825Z,1.65
2019-05-18T15:58:57.052Z,1.50
2019-05-18T16:01:24.252Z,1.80
2019-05-18T16:03:51.520Z,1.62
2019-05-18T16:06:18.746Z,1.60
2019-05-18T16:08:45.941Z,1.25
2019-05-18T16:11:13.717Z,1.50
2019-05-18T16:13:41.007Z,0.90
2019-05-18T16:16:08.224Z,1.17
2019-05-18T16:18:35.428Z,1.10
2019-05-18T16:21:02.685Z,0.80
2019-05-18T16:23:30.274Z,1.30
2019-05-18T16:25:57.567Z,1.65
2019-05-18T16:28:24.756Z,2.00
2019-05-18T16:30:52.330Z,1.55
2019-05-18T16:33:19.533Z,1.60
2019-05-18T16:35:46.829Z,1.27
2019-05-18T16:38:14.100Z,1.72
2019-05-18T16:40:41.640Z,2.60
2019-05-18T16:43:08.920Z,2.58
2019-05-18T16:45:36.160Z,2.17
2019-05-18T16:48:03.430Z,2.33
2019-05-18T16:50:30.728Z,2.30
2019-05-18T16:52:57.924Z,2.30
2019-05-18T16:55:25.143Z,1.65
2019-05-18T16:57:52.350Z,2.05
2019-05-18T17:00:19.712Z,2.40
2019-05-18T17:02:46.992Z,2.20
2019-05-18T17:05:14.316Z,2.60
2019-05-18T17:07:41.523Z,2.33
2019-05-18T17:10:08.912Z,2.00
2019-05-18T17:12:36.126Z,1.30
2019-05-18T17:15:04.763Z,1.30
2019-05-18T17:17:35.228Z,1.25
2019-05-18T17:20:01.174Z,1.32
2019-05-18T17:22:28.401Z,0.90
2019-05-18T17:24:55.597Z,0.90
2019-05-18T17:27:22.849Z,0.82
2019-05-18T17:29:50.052Z,0.90
2019-05-18T17:32:17.349Z,0.75
2019-05-18T17:34:44.550Z,0.70
2019-05-18T17:37:11.864Z,0.80
2019-05-18T17:39:39.056Z,0.70
2019-05-18T17:42:06.289Z,0.70
2019-05-18T17:44:33.556Z,0.72
2019-05-18T17:47:01.326Z,0.70
2019-05-18T17:49:28.595Z,0.80
2019-05-18T17:51:55.972Z,0.68
2019-05-18T17:54:23.182Z,0.70
2019-05-18T17:56:50.443Z,1.30
2019-05-18T17:59:17.683Z,1.00
2019-05-18T18:01:44.971Z,0.80
2019-05-18T18:04:12.315Z,0.90
2019-05-18T18:06:39.696Z,0.80
2019-05-18T18:09:07.331Z,0.60
2019-05-18T18:11:34.601Z,0.70
2019-05-18T18:14:02.089Z,0.98
2019-05-18T18:16:29.669Z,0.90
2019-05-18T18:18:56.936Z,0.60
2019-05-18T18:21:24.450Z,0.90
2019-05-18T18:23:54.546Z,1.05
2019-05-18T18:26:20.917Z,0.70
2019-05-18T18:28:48.577Z,0.68
2019-05-18T18:31:15.776Z,0.80
2019-05-18T18:33:43.003Z,0.90
2019-05-18T18:36:10.317Z,0.70
2019-05-18T18:38:37.603Z,0.78
2019-05-18T18:41:04.809Z,0.60
2019-05-18T18:43:32.040Z,0.80
2019-05-18T18:45:59.740Z,0.60
2019-05-18T18:48:27.305Z,0.57
2019-05-18T18:50:54.622Z,0.40
2019-05-18T18:53:21.886Z,0.60
2019-05-18T18:55:49.084Z,0.55
2019-05-18T18:58:16.320Z,0.60
2019-05-18T19:00:43.524Z,0.50
2019-05-18T19:03:10.806Z,0.50
2019-05-18T19:05:38.088Z,0.60
2019-05-18T19:08:05.343Z,0.70
2019-05-18T19:10:32.541Z,0.88
2019-05-18T19:12:59.872Z,1.20
2019-05-18T19:15:27.144Z,1.30
2019-05-18T19:17:54.340Z,1.05
2019-05-18T19:20:21.576Z,1.10
2019-05-18T19:22:48.780Z,1.10
2019-05-18T19:25:15.987Z,0.90
2019-05-18T19:27:54.062Z,0.90
2019-05-18T19:30:12.537Z,0.90
2019-05-18T19:32:39.860Z,1.20
2019-05-18T19:35:07.170Z,1.40
2019-05-18T19:37:34.376Z,2.42
2019-05-18T19:40:01.647Z,1.55
2019-05-18T19:42:28.995Z,1.40
2019-05-18T19:44:56.264Z,1.60
2019-05-18T19:47:23.464Z,1.87
2019-05-18T19:49:50.698Z,1.20
2019-05-18T19:52:17.973Z,1.50
2019-05-18T19:54:45.249Z,1.55
2019-05-18T19:57:12.765Z,1.50
2019-05-18T19:59:40.036Z,1.50
2019-05-18T20:02:07.606Z,1.20
2019-05-18T20:04:34.910Z,1.42
2019-05-18T20:07:02.190Z,1.20
2019-05-18T20:09:29.464Z,1.40
2019-05-18T20:11:56.769Z,1.10
2019-05-18T20:14:23.966Z,1.87
2019-05-18T20:16:51.256Z,1.90
2019-05-18T20:19:18.559Z,2.75
2019-05-18T20:21:45.902Z,4.12
2019-05-18T20:24:13.206Z,2.87
2019-05-18T20:26:40.687Z,2.50
2019-05-18T20:29:07.956Z,2.00
2019-05-18T20:31:35.148Z,1.92
2019-05-18T20:34:02.392Z,1.55
2019-05-18T20:36:29.592Z,1.27
2019-05-18T20:38:56.812Z,1.25
2019-05-18T20:41:24.248Z,1.15
2019-05-18T20:43:52.105Z,1.07
2019-05-18T20:46:19.438Z,0.98
2019-05-18T20:48:47.209Z,0.60
2019-05-18T20:51:14.617Z,2.35
2019-05-18T20:53:41.973Z,3.50
2019-05-18T20:56:09.652Z,3.55
2019-05-18T20:58:40.575Z,3.17
2019-05-18T21:01:06.630Z,3.35
2019-05-18T21:03:34.003Z,3.35
2019-05-18T21:06:01.353Z,3.37
2019-05-18T21:08:29.182Z,3.12
2019-05-18T21:10:56.796Z,2.47
2019-05-18T21:13:24.180Z,2.70
2019-05-18T21:15:51.470Z,2.90
2019-05-18T21:18:18.819Z,3.15
2019-05-18T21:20:46.169Z,3.33
2019-05-18T21:23:13.672Z,3.42
2019-05-18T21:25:41.171Z,4.22
2019-05-18T21:28:08.368Z,3.60
2019-05-18T21:30:35.568Z,3.60
2019-05-18T21:33:02.875Z,3.15
2019-05-18T21:35:30.084Z,3.25
2019-05-18T21:37:57.353Z,2.95
2019-05-18T21:40:26.303Z,2.98
2019-05-18T21:42:53.606Z,2.52
2019-05-18T21:45:20.845Z,2.95
2019-05-18T21:47:48.516Z,2.75
2019-05-18T21:50:15.808Z,3.08
2019-05-18T21:52:43.009Z,3.17
2019-05-18T21:55:10.936Z,3.20
2019-05-18T21:57:38.548Z,3.40
2019-05-18T22:00:05.827Z,2.65
2019-05-18T22:02:33.132Z,3.10
2019-05-18T22:05:00.332Z,3.20
2019-05-18T22:07:27.605Z,2.95
2019-05-18T22:09:55.065Z,2.40
2019-05-18T22:12:22.273Z,2.40
2019-05-18T22:14:49.529Z,1.98
2019-05-18T22:17:16.772Z,1.47
2019-05-18T22:19:43.969Z,1.35
2019-05-18T22:22:11.195Z,1.20
2019-05-18T22:24:38.424Z,0.75
2019-05-18T22:27:05.973Z,0.70
2019-05-18T22:29:33.243Z,0.70
2019-05-18T22:32:00.559Z,0.53
2019-05-18T22:34:27.828Z,0.70
2019-05-18T22:36:55.028Z,0.60
2019-05-18T22:39:22.336Z,1.22
2019-05-18T22:41:49.893Z,0.85
2019-05-18T22:44:17.161Z,0.88
2019-05-18T22:46:44.733Z,0.72
2019-05-18T22:49:12.004Z,0.57
2019-05-18T22:51:39.336Z,0.40
2019-05-18T22:54:06.563Z,0.42
2019-05-18T22:56:34.115Z,0.50
2019-05-18T22:59:01.384Z,0.30
2019-05-18T23:01:28.633Z,0.30
2019-05-18T23:03:55.905Z,0.33
2019-05-18T23:06:23.115Z,0.40
2019-05-18T23:08:50.432Z,0.50
2019-05-18T23:11:17.647Z,0.60
2019-05-18T23:13:44.908Z,0.53
2019-05-18T23:16:12.216Z,0.78
2019-05-18T23:18:39.417Z,0.50
2019-05-18T23:21:06.692Z,0.40
2019-05-18T23:23:34.000Z,0.30
2019-05-18T23:26:01.380Z,0.30
2019-05-18T23:28:28.893Z,0.30
2019-05-18T23:30:56.136Z,1.07
2019-05-18T23:33:23.480Z,1.35
2019-05-18T23:35:51.062Z,0.90
2019-05-18T23:38:18.365Z,0.72
2019-05-18T23:40:45.634Z,0.70
2019-05-18T23:43:12.909Z,0.50
2019-05-18T23:45:40.140Z,0.70
2019-05-18T23:48:07.448Z,0.70
2019-05-18T23:50:34.682Z,0.40
2019-05-18T23:53:02.100Z,0.45
2019-05-18T23:55:29.409Z,0.33
2019-05-18T23:58:05.006Z,0.30
